createdAt,value
2023-01-13T00:01:54.887Z,48.33
2023-01-13T00:04:20.504Z,48.39
2023-01-13T00:06:46.100Z,48.20
2023-01-13T00:09:11.730Z,48.02
2023-01-13T00:11:37.337Z,48.19
2023-01-13T00:14:02.948Z,48.04
2023-01-13T00:16:28.542Z,48.22
2023-01-13T00:18:54.152Z,48.14
2023-01-13T00:21:20.658Z,48.20
2023-01-13T00:23:46.556Z,48.19
2023-01-13T00:26:15.837Z,48.08
2023-01-13T00:28:41.441Z,48.23
2023-01-13T00:31:07.853Z,48.11
2023-01-13T00:33:33.544Z,48.42
2023-01-13T00:35:59.730Z,48.15
2023-01-13T00:38:25.341Z,48.31
2023-01-13T00:40:54.686Z,48.15
2023-01-13T00:43:23.264Z,48.14
2023-01-13T00:45:50.759Z,48.12
2023-01-13T00:48:18.181Z,48.41
2023-01-13T00:50:43.867Z,48.30
2023-01-13T00:53:09.472Z,48.11
2023-01-13T00:55:35.080Z,48.40
2023-01-13T00:58:02.821Z,48.22
2023-01-13T01:00:29.064Z,48.33
2023-01-13T01:02:54.717Z,48.27
2023-01-13T01:05:20.316Z,48.36
2023-01-13T01:07:45.913Z,48.50
2023-01-13T01:10:11.533Z,48.09
2023-01-13T01:12:37.136Z,48.10
2023-01-13T01:15:05.321Z,48.42
2023-01-13T01:17:30.995Z,48.17
2023-01-13T01:19:56.594Z,48.46
2023-01-13T01:22:22.192Z,48.33
2023-01-13T01:24:47.804Z,48.16
2023-01-13T01:27:13.425Z,48.48
2023-01-13T01:29:39.024Z,48.13
2023-01-13T01:32:04.718Z,48.22
2023-01-13T01:34:30.320Z,48.33
2023-01-13T01:36:55.922Z,48.48
2023-01-13T01:39:21.529Z,48.21
2023-01-13T01:42:07.064Z,48.32
2023-01-13T01:44:50.692Z,48.32
2023-01-13T01:47:16.726Z,48.50
2023-01-13T01:49:42.341Z,48.21
2023-01-13T01:52:09.619Z,48.26
2023-01-13T01:54:38.420Z,48.52
2023-01-13T01:57:04.035Z,48.49
2023-01-13T01:59:29.643Z,48.23
2023-01-13T02:01:55.369Z,48.33
2023-01-13T02:04:22.581Z,48.25
2023-01-13T02:06:48.187Z,48.38
2023-01-13T02:09:13.796Z,48.51
2023-01-13T02:11:59.308Z,48.20
2023-01-13T02:14:25.876Z,48.47
2023-01-13T02:16:53.574Z,48.53
2023-01-13T02:19:37.711Z,48.45
2023-01-13T02:22:09.679Z,48.19
2023-01-13T02:24:54.927Z,48.26
2023-01-13T02:27:25.384Z,48.53
2023-01-13T02:30:27.375Z,48.15
2023-01-13T02:33:10.238Z,48.27
2023-01-13T02:35:37.962Z,48.52
2023-01-13T02:38:03.559Z,48.38
2023-01-13T02:40:31.895Z,48.24
2023-01-13T02:43:20.512Z,48.38
2023-01-13T02:45:48.600Z,48.20
2023-01-13T02:48:14.244Z,48.61
2023-01-13T02:50:48.111Z,48.26
2023-01-13T02:53:16.404Z,48.45
2023-01-13T02:55:43.497Z,48.08
2023-01-13T02:58:09.825Z,48.54
2023-01-13T03:00:35.874Z,48.36
2023-01-13T03:03:01.570Z,48.41
2023-01-13T03:05:27.185Z,48.54
2023-01-13T03:07:56.179Z,48.53
2023-01-13T03:10:43.443Z,48.40
2023-01-13T03:13:26.302Z,48.27
2023-01-13T03:16:09.855Z,48.23
2023-01-13T03:18:55.377Z,48.54
2023-01-13T03:21:29.530Z,48.59
2023-01-13T03:23:59.244Z,48.29
2023-01-13T03:26:30.935Z,48.28
2023-01-13T03:28:58.927Z,48.33
2023-01-13T03:31:25.623Z,48.26
2023-01-13T03:33:54.850Z,48.26
2023-01-13T03:36:22.030Z,48.59
2023-01-13T03:38:51.375Z,48.30
2023-01-13T03:41:19.196Z,48.61
2023-01-13T03:44:07.462Z,48.34
2023-01-13T03:46:35.147Z,48.46
2023-01-13T03:49:02.224Z,48.25
2023-01-13T03:51:28.104Z,48.41
2023-01-13T03:53:55.566Z,48.27
2023-01-13T03:56:24.853Z,48.59
2023-01-13T03:58:50.415Z,48.29
2023-01-13T04:01:36.083Z,48.28
2023-01-13T04:04:03.767Z,48.39
2023-01-13T04:06:37.268Z,48.50
2023-01-13T04:09:08.436Z,48.35
2023-01-13T04:11:37.142Z,48.32
2023-01-13T04:14:02.711Z,48.29
2023-01-13T04:16:28.255Z,48.40
2023-01-13T04:18:53.823Z,48.34
2023-01-13T04:21:19.378Z,48.35
2023-01-13T04:23:45.016Z,48.30
2023-01-13T04:26:10.580Z,48.60
2023-01-13T04:28:36.188Z,48.46
2023-01-13T04:31:01.777Z,48.35
2023-01-13T04:33:27.433Z,48.33
2023-01-13T04:35:52.989Z,48.49
2023-01-13T04:38:19.243Z,48.61
2023-01-13T04:40:44.826Z,48.46
2023-01-13T04:43:10.393Z,48.28
2023-01-13T04:45:35.951Z,48.30
2023-01-13T04:48:01.549Z,48.61
2023-01-13T04:50:27.154Z,48.56
2023-01-13T04:52:52.834Z,48.28
2023-01-13T04:55:18.975Z,48.63
2023-01-13T04:57:44.565Z,48.60
2023-01-13T05:00:11.024Z,48.56
2023-01-13T05:02:36.601Z,48.59
2023-01-13T05:05:02.251Z,48.33
2023-01-13T05:07:27.846Z,48.53
2023-01-13T05:09:53.400Z,48.30
2023-01-13T05:12:38.861Z,48.58
2023-01-13T05:15:24.552Z,48.40
2023-01-13T05:17:50.116Z,48.56
2023-01-13T05:20:15.672Z,48.27
2023-01-13T05:23:01.136Z,48.34
2023-01-13T05:25:27.357Z,48.62
2023-01-13T05:27:54.898Z,48.52
2023-01-13T05:30:20.980Z,48.64
2023-01-13T05:32:46.561Z,48.57
2023-01-13T05:35:12.146Z,48.48
2023-01-13T05:37:37.752Z,48.29
2023-01-13T05:40:23.411Z,48.60
2023-01-13T05:43:19.283Z,48.31
2023-01-13T05:45:45.903Z,48.44
2023-01-13T05:48:12.140Z,48.46
2023-01-13T05:50:37.699Z,48.62
2023-01-13T05:53:03.695Z,48.51
2023-01-13T05:55:29.249Z,48.28
2023-01-13T05:57:54.807Z,48.56
2023-01-13T06:00:20.425Z,48.61
2023-01-13T06:02:46.027Z,48.42
2023-01-13T06:05:11.614Z,48.31
2023-01-13T06:07:37.181Z,48.43
2023-01-13T06:10:02.908Z,48.45
2023-01-13T06:12:28.477Z,48.57
2023-01-13T06:14:54.039Z,48.27
2023-01-13T06:17:19.603Z,48.62
2023-01-13T06:19:45.150Z,48.43
2023-01-13T06:22:18.591Z,48.54
2023-01-13T06:24:45.214Z,48.54
2023-01-13T06:27:10.921Z,48.46
2023-01-13T06:29:36.487Z,48.58
2023-01-13T06:32:03.031Z,48.62
2023-01-13T06:34:28.584Z,48.38
2023-01-13T06:36:54.137Z,48.29
2023-01-13T06:39:21.092Z,48.45
2023-01-13T06:42:06.993Z,48.42
2023-01-13T06:44:32.553Z,48.51
2023-01-13T06:46:58.181Z,48.66
2023-01-13T06:49:23.764Z,48.96
2023-01-13T06:51:49.327Z,49.03
2023-01-13T06:54:14.935Z,48.96
2023-01-13T06:56:40.559Z,48.94
2023-01-13T06:59:06.248Z,48.70
2023-01-13T07:01:31.913Z,48.68
2023-01-13T07:03:57.604Z,48.84
2023-01-13T07:06:23.316Z,48.92
2023-01-13T07:08:48.881Z,48.82
2023-01-13T07:11:14.440Z,48.82
2023-01-13T07:13:59.913Z,48.66
2023-01-13T07:16:27.312Z,48.63
2023-01-13T07:18:52.943Z,48.74
2023-01-13T07:21:19.262Z,48.72
2023-01-13T07:23:45.104Z,48.56
2023-01-13T07:26:10.679Z,48.74
2023-01-13T07:28:36.459Z,48.81
2023-01-13T07:31:02.283Z,48.82
2023-01-13T07:33:32.006Z,48.61
2023-01-13T07:35:58.631Z,48.82
2023-01-13T07:38:24.339Z,48.70
2023-01-13T07:40:49.889Z,48.43
2023-01-13T07:43:35.342Z,48.78
2023-01-13T07:46:02.277Z,48.76
2023-01-13T07:48:28.146Z,48.76
2023-01-13T07:50:53.854Z,48.37
2023-01-13T07:53:19.796Z,48.25
2023-01-13T07:55:45.346Z,48.51
2023-01-13T07:58:10.912Z,47.84
2023-01-13T08:00:36.640Z,48.51
2023-01-13T08:03:02.242Z,48.47
2023-01-13T08:05:27.819Z,48.08
2023-01-13T08:07:53.395Z,48.09
2023-01-13T08:10:18.948Z,48.13
2023-01-13T08:13:04.427Z,48.22
2023-01-13T08:15:31.560Z,48.35
2023-01-13T08:17:58.493Z,48.64
2023-01-13T08:20:24.308Z,47.78
2023-01-13T08:22:49.958Z,48.42
2023-01-13T08:25:16.579Z,48.66
2023-01-13T08:27:42.187Z,48.64
2023-01-13T08:30:08.067Z,48.49
2023-01-13T08:32:33.627Z,48.46
2023-01-13T08:34:59.198Z,48.78
2023-01-13T08:37:24.761Z,48.60
2023-01-13T08:39:50.320Z,48.26
2023-01-13T08:42:15.872Z,48.56
2023-01-13T08:44:41.437Z,48.40
2023-01-13T08:47:07.056Z,48.26
2023-01-13T08:49:32.628Z,48.29
2023-01-13T08:51:58.535Z,48.24
2023-01-13T08:54:24.096Z,48.36
2023-01-13T08:56:49.742Z,48.48
2023-01-13T08:59:16.000Z,48.56
2023-01-13T09:01:41.804Z,48.28
2023-01-13T09:04:09.011Z,48.52
2023-01-13T09:06:34.602Z,48.23
2023-01-13T09:09:01.547Z,48.45
2023-01-13T09:11:49.947Z,48.50
2023-01-13T09:14:17.827Z,48.45
2023-01-13T09:16:43.392Z,48.47
2023-01-13T09:19:08.965Z,48.40
2023-01-13T09:21:34.543Z,48.11
2023-01-13T09:24:00.135Z,48.15
2023-01-13T09:26:25.711Z,48.40
2023-01-13T09:28:51.265Z,48.40
2023-01-13T09:31:16.943Z,48.28
2023-01-13T09:34:02.440Z,48.30
2023-01-13T09:36:27.997Z,48.31
2023-01-13T09:38:53.591Z,48.36
2023-01-13T09:41:40.685Z,48.11
2023-01-13T09:44:06.918Z,47.97
2023-01-13T09:46:48.987Z,48.21
2023-01-13T09:49:23.178Z,48.26
2023-01-13T09:51:53.992Z,47.30
2023-01-13T09:54:22.093Z,47.42
2023-01-13T09:56:47.750Z,46.80
2023-01-13T09:59:14.846Z,47.06
2023-01-13T10:04:14.897Z,47.82
2023-01-13T10:06:41.678Z,47.00
2023-01-13T10:09:11.834Z,47.59
2023-01-13T10:11:58.304Z,47.98
2023-01-13T10:14:26.543Z,47.53
2023-01-13T10:17:12.059Z,47.66
2023-01-13T10:19:42.303Z,46.31
2023-01-13T10:22:27.746Z,46.99
2023-01-13T10:25:04.005Z,46.17
2023-01-13T10:27:32.207Z,43.95
2023-01-13T10:29:57.789Z,44.51
2023-01-13T10:32:23.348Z,44.05
2023-01-13T10:34:50.280Z,45.60
2023-01-13T10:37:25.116Z,45.33
2023-01-13T10:39:51.164Z,42.50
2023-01-13T10:42:17.528Z,43.26
2023-01-13T10:44:47.169Z,43.59
2023-01-13T10:47:17.837Z,43.68
2023-01-13T10:49:43.405Z,45.51
2023-01-13T10:52:25.456Z,44.60
2023-01-13T10:54:51.423Z,44.04
2023-01-13T10:57:18.734Z,44.12
2023-01-13T10:59:44.302Z,43.71
2023-01-13T11:02:25.671Z,43.70
2023-01-13T11:07:45.615Z,43.84
2023-01-13T11:10:16.092Z,43.82
2023-01-13T11:13:01.651Z,44.24
2023-01-13T11:15:32.616Z,43.72
2023-01-13T11:18:00.585Z,43.51
2023-01-13T11:20:31.596Z,43.73
2023-01-13T11:22:59.136Z,43.89
2023-01-13T11:25:41.955Z,44.32
2023-01-13T11:28:27.430Z,44.33
2023-01-13T11:30:58.065Z,44.20
2023-01-13T11:33:43.545Z,44.09
2023-01-13T11:36:11.506Z,44.13
2023-01-13T11:38:47.066Z,44.58
2023-01-13T11:41:19.433Z,44.52
2023-01-13T11:43:47.308Z,45.27
2023-01-13T11:46:12.884Z,44.70
2023-01-13T11:48:40.442Z,45.61
2023-01-13T11:54:08.004Z,45.94
2023-01-13T11:56:53.563Z,46.17
2023-01-13T11:59:25.965Z,46.24
2023-01-13T12:02:11.430Z,46.48
2023-01-13T12:04:56.909Z,46.54
2023-01-13T12:07:42.388Z,46.32
2023-01-13T12:10:13.361Z,46.51
2023-01-13T12:13:00.229Z,46.72
2023-01-13T12:15:28.924Z,46.67
2023-01-13T12:18:05.594Z,46.61
2023-01-13T12:20:41.701Z,46.78
2023-01-13T12:23:12.530Z,46.62
2023-01-13T12:25:40.039Z,46.67
2023-01-13T12:28:06.863Z,46.57
2023-01-13T12:30:40.286Z,46.91
2023-01-13T12:33:11.727Z,46.85
2023-01-13T12:35:39.222Z,46.73
2023-01-13T12:38:07.529Z,46.82
2023-01-13T12:40:43.024Z,46.71
2023-01-13T12:43:36.556Z,46.85
2023-01-13T12:46:22.106Z,46.54
2023-01-13T12:51:23.429Z,46.65
2023-01-13T12:53:48.995Z,46.76
2023-01-13T12:56:36.339Z,46.63
2023-01-13T12:59:20.486Z,46.47
2023-01-13T13:01:46.923Z,46.74
2023-01-13T13:04:13.352Z,46.84
2023-01-13T13:06:43.066Z,46.71
2023-01-13T13:09:28.505Z,46.65
2023-01-13T13:14:38.729Z,46.60
2023-01-13T13:17:16.962Z,46.65
2023-01-13T13:19:42.663Z,46.89
2023-01-13T13:24:51.585Z,46.57
2023-01-13T13:27:17.731Z,46.86
2023-01-13T13:29:45.820Z,46.52
2023-01-13T13:32:30.594Z,46.75
2023-01-13T13:35:16.067Z,46.73
2023-01-13T13:38:06.037Z,46.61
2023-01-13T13:40:52.207Z,46.90
2023-01-13T13:43:37.681Z,46.63
2023-01-13T13:46:30.614Z,46.58
2023-01-13T13:48:56.249Z,46.63
2023-01-13T13:51:30.740Z,46.58
2023-01-13T13:53:58.459Z,46.88
2023-01-13T13:56:25.726Z,46.71
2023-01-13T13:58:51.536Z,46.83
2023-01-13T14:01:20.161Z,46.68
2023-01-13T14:03:45.818Z,46.71
2023-01-13T14:06:19.207Z,46.84
2023-01-13T14:08:46.709Z,46.48
2023-01-13T14:11:28.162Z,46.70
2023-01-13T14:14:02.163Z,46.59
2023-01-13T14:16:27.750Z,46.61
2023-01-13T14:18:53.337Z,46.22
2023-01-13T14:21:21.730Z,45.01
2023-01-13T14:24:09.802Z,46.35
2023-01-13T14:26:35.402Z,46.54
2023-01-13T14:29:00.964Z,46.65
2023-01-13T14:31:26.529Z,46.68
2023-01-13T14:33:53.362Z,46.35
2023-01-13T14:41:46.224Z,46.40
2023-01-13T14:44:15.075Z,46.25
2023-01-13T14:46:41.514Z,46.42
2023-01-13T14:49:13.044Z,46.45
2023-01-13T14:51:38.593Z,46.42
2023-01-13T14:54:24.083Z,46.57
2023-01-13T14:56:50.293Z,46.69
2023-01-13T14:59:35.792Z,46.70
2023-01-13T15:02:02.388Z,46.50
2023-01-13T15:04:31.912Z,46.72
2023-01-13T15:06:57.503Z,46.57
2023-01-13T15:09:24.147Z,46.61
2023-01-13T15:11:49.697Z,46.60
2023-01-13T15:14:15.261Z,46.34
2023-01-13T15:16:40.801Z,46.58
2023-01-13T15:19:07.982Z,46.28
2023-01-13T15:21:33.531Z,46.60
2023-01-13T15:23:59.112Z,46.59
2023-01-13T15:26:25.756Z,46.29
2023-01-13T15:28:52.083Z,46.60
2023-01-13T15:31:17.673Z,46.61
2023-01-13T15:33:43.305Z,46.60
2023-01-13T15:36:16.789Z,46.32
2023-01-13T15:38:42.360Z,46.58
2023-01-13T15:41:07.902Z,46.32
2023-01-13T15:43:53.360Z,46.67
2023-01-13T15:46:38.963Z,46.33
2023-01-13T15:49:13.932Z,46.38
2023-01-13T15:51:39.521Z,46.44
2023-01-13T15:54:06.149Z,46.54
2023-01-13T15:56:31.791Z,46.54
2023-01-13T15:58:57.350Z,46.29
2023-01-13T16:01:23.000Z,46.52
2023-01-13T16:03:48.709Z,46.44
2023-01-13T16:06:17.953Z,46.22
2023-01-13T16:08:43.533Z,46.50
2023-01-13T16:11:09.543Z,46.33
2023-01-13T16:13:35.113Z,46.70
2023-01-13T16:16:00.692Z,46.34
2023-01-13T16:18:26.490Z,46.36
2023-01-13T16:20:54.206Z,46.33
2023-01-13T16:23:20.658Z,46.50
2023-01-13T16:25:46.783Z,46.34
2023-01-13T16:28:23.570Z,46.51
2023-01-13T16:30:49.285Z,46.57
2023-01-13T16:33:14.861Z,46.58
2023-01-13T16:35:43.712Z,46.33
2023-01-13T16:38:25.947Z,46.52
2023-01-13T16:40:51.552Z,46.45
2023-01-13T16:43:17.117Z,46.28
2023-01-13T16:45:43.165Z,46.42
2023-01-13T16:48:13.490Z,46.45
2023-01-13T16:50:40.200Z,46.63
2023-01-13T16:53:08.392Z,46.37
2023-01-13T16:55:34.484Z,46.28
2023-01-13T16:58:00.050Z,46.61
2023-01-13T17:00:25.676Z,46.22
2023-01-13T17:02:51.236Z,46.45
2023-01-13T17:05:16.811Z,46.24
2023-01-13T17:07:43.043Z,46.31
2023-01-13T17:10:12.717Z,46.59
2023-01-13T17:12:38.273Z,46.54
2023-01-13T17:15:03.972Z,46.28
2023-01-13T17:17:29.528Z,46.62
2023-01-13T17:19:55.093Z,46.48
2023-01-13T17:22:20.877Z,46.29
2023-01-13T17:24:48.650Z,46.57
2023-01-13T17:27:16.388Z,46.40
2023-01-13T17:29:41.949Z,46.31
2023-01-13T17:32:15.132Z,46.61
2023-01-13T17:34:40.692Z,46.37
2023-01-13T17:37:06.240Z,46.67
2023-01-13T17:39:31.795Z,46.43
2023-01-13T17:41:57.350Z,46.40
2023-01-13T17:44:22.915Z,46.60
2023-01-13T17:46:48.549Z,46.28
2023-01-13T17:49:14.816Z,46.34
2023-01-13T17:51:40.364Z,46.44
2023-01-13T17:54:05.942Z,46.24
2023-01-13T17:56:31.489Z,46.25
2023-01-13T17:58:57.650Z,46.37
2023-01-13T18:01:23.344Z,46.24
2023-01-13T18:03:49.036Z,46.26
2023-01-13T18:06:16.135Z,46.25
2023-01-13T18:08:41.695Z,46.28
2023-01-13T18:11:07.248Z,46.30
2023-01-13T18:13:33.240Z,46.29
2023-01-13T18:16:05.008Z,46.29
2023-01-13T18:18:30.578Z,46.41
2023-01-13T18:21:16.089Z,46.27
2023-01-13T18:24:01.570Z,46.41
2023-01-13T18:26:47.018Z,46.48
2023-01-13T18:29:12.581Z,46.24
2023-01-13T18:31:38.161Z,46.43
2023-01-13T18:34:03.722Z,46.31
2023-01-13T18:36:29.264Z,46.30
2023-01-13T18:38:54.828Z,46.34
2023-01-13T18:41:40.274Z,46.30
2023-01-13T18:44:05.838Z,46.50
2023-01-13T18:46:31.451Z,46.27
2023-01-13T18:48:57.110Z,46.41
2023-01-13T18:51:22.668Z,46.64
2023-01-13T18:53:48.225Z,46.29
2023-01-13T18:56:13.784Z,46.41
2023-01-13T18:58:44.117Z,46.18
2023-01-13T19:01:09.909Z,46.38
2023-01-13T19:03:35.485Z,46.23
2023-01-13T19:06:01.849Z,46.52
2023-01-13T19:08:27.400Z,46.57
2023-01-13T19:10:53.037Z,46.25
2023-01-13T19:13:18.612Z,46.32
2023-01-13T19:15:44.202Z,46.29
2023-01-13T19:18:09.784Z,46.54
2023-01-13T19:20:36.627Z,46.24
2023-01-13T19:23:02.181Z,46.14
2023-01-13T19:25:27.734Z,46.22
2023-01-13T19:27:53.290Z,46.28
2023-01-13T19:30:18.863Z,46.12
2023-01-13T19:32:44.422Z,46.20
2023-01-13T19:35:12.164Z,46.25
2023-01-13T19:37:37.764Z,46.52
2023-01-13T19:40:08.290Z,46.21
2023-01-13T19:42:53.992Z,46.40
2023-01-13T19:45:26.746Z,46.25
2023-01-13T19:47:52.625Z,46.37
2023-01-13T19:50:18.175Z,46.18
2023-01-13T19:52:43.757Z,46.38
2023-01-13T19:55:10.932Z,46.33
2023-01-13T19:57:37.848Z,46.24
2023-01-13T20:00:05.054Z,46.40
2023-01-13T20:02:31.226Z,46.23
2023-01-13T20:04:57.662Z,46.27
2023-01-13T20:07:23.834Z,46.19
2023-01-13T20:09:49.624Z,46.30
2023-01-13T20:12:15.616Z,46.22
2023-01-13T20:14:42.570Z,46.21
2023-01-13T20:17:08.530Z,46.48
2023-01-13T20:19:34.101Z,46.21
2023-01-13T20:21:59.654Z,46.21
2023-01-13T20:24:25.653Z,46.50
2023-01-13T20:26:52.811Z,46.23
2023-01-13T20:29:19.941Z,46.23
2023-01-13T20:31:47.077Z,46.24
2023-01-13T20:34:13.788Z,46.57
2023-01-13T20:36:42.488Z,46.42
2023-01-13T20:39:09.297Z,46.20
2023-01-13T20:41:54.749Z,46.52
2023-01-13T20:44:20.308Z,46.21
2023-01-13T20:46:45.907Z,46.16
2023-01-13T20:49:12.281Z,46.18
2023-01-13T20:51:37.857Z,46.48
2023-01-13T20:54:03.477Z,46.52
2023-01-13T20:56:29.063Z,46.37
2023-01-13T20:58:54.629Z,46.50
2023-01-13T21:01:20.270Z,46.24
2023-01-13T21:03:45.922Z,46.25
2023-01-13T21:06:11.470Z,46.30
2023-01-13T21:08:37.025Z,46.47
2023-01-13T21:11:04.360Z,46.36
2023-01-13T21:13:50.307Z,46.44
2023-01-13T21:16:15.928Z,46.18
2023-01-13T21:19:01.480Z,46.23
2023-01-13T21:21:27.049Z,46.44
2023-01-13T21:23:53.218Z,46.20
2023-01-13T21:26:19.428Z,46.37
2023-01-13T21:28:45.339Z,46.15
2023-01-13T21:31:10.923Z,46.13
2023-01-13T21:33:36.559Z,46.26
2023-01-13T21:36:03.861Z,46.24
2023-01-13T21:38:30.371Z,46.52
2023-01-13T21:40:59.558Z,46.17
2023-01-13T21:43:45.021Z,46.46
2023-01-13T21:46:32.245Z,46.15
2023-01-13T21:48:57.916Z,46.19
2023-01-13T21:51:23.460Z,46.33
2023-01-13T21:53:49.027Z,46.50
2023-01-13T21:56:14.568Z,46.31
2023-01-13T21:58:40.142Z,46.19
2023-01-13T22:01:05.769Z,46.23
2023-01-13T22:03:51.321Z,46.23
2023-01-13T22:06:16.928Z,46.42
2023-01-13T22:08:42.500Z,46.43
2023-01-13T22:11:08.057Z,46.26
2023-01-13T22:13:53.511Z,46.62
2023-01-13T22:16:19.611Z,46.22
2023-01-13T22:18:45.197Z,46.21
2023-01-13T22:21:10.757Z,46.40
2023-01-13T22:23:36.323Z,46.46
2023-01-13T22:26:02.351Z,46.25
2023-01-13T22:28:33.220Z,46.53
2023-01-13T22:30:59.510Z,46.35
2023-01-13T22:33:25.072Z,46.18
2023-01-13T22:35:54.291Z,46.26
2023-01-13T22:38:19.851Z,46.43
2023-01-13T22:40:45.399Z,46.41
2023-01-13T22:43:10.956Z,46.27
2023-01-13T22:45:36.596Z,46.38
2023-01-13T22:48:02.206Z,46.54
2023-01-13T22:50:27.758Z,46.25
2023-01-13T22:52:53.315Z,46.24
2023-01-13T22:55:18.864Z,46.33
2023-01-13T22:57:48.201Z,46.26
2023-01-13T23:00:14.212Z,46.24
2023-01-13T23:02:39.754Z,46.49
2023-01-13T23:05:05.429Z,46.28
2023-01-13T23:07:30.992Z,46.54
2023-01-13T23:09:56.553Z,46.25
2023-01-13T23:12:22.094Z,46.21
2023-01-13T23:14:47.679Z,46.19
2023-01-13T23:17:13.229Z,46.21
2023-01-13T23:19:38.794Z,46.27
2023-01-13T23:22:04.336Z,46.45
2023-01-13T23:24:29.897Z,46.28
2023-01-13T23:26:55.438Z,46.55
2023-01-13T23:29:20.996Z,46.29
2023-01-13T23:31:46.752Z,46.26
2023-01-13T23:34:12.307Z,46.25
2023-01-13T23:36:40.235Z,46.46
2023-01-13T23:39:05.791Z,46.60
2023-01-13T23:41:31.334Z,46.26
2023-01-13T23:43:57.878Z,46.28
2023-01-13T23:46:23.498Z,46.26
2023-01-13T23:48:49.612Z,46.32
2023-01-13T23:51:15.311Z,46.11
2023-01-13T23:53:41.679Z,46.26
2023-01-13T23:56:08.069Z,46.57
2023-01-13T23:58:34.119Z,46.60
